sensor_id;sensor_type;location;lat;lon;timestamp;P1;durP1;ratioP1;P2;durP2;ratioP2
25263;SDS011;13211;51.796;5.808;2023-02-22T00:04:57;59.72;;;27.35;;
25263;SDS011;13211;51.796;5.808;2023-02-22T00:07:27;56.05;;;27.90;;
25263;SDS011;13211;51.796;5.808;2023-02-22T00:09:55;57.55;;;27.25;;
25263;SDS011;13211;51.796;5.808;2023-02-22T00:12:22;55.70;;;25.50;;
25263;SDS011;13211;51.796;5.808;2023-02-22T00:14:52;58.90;;;27.15;;
25263;SDS011;13211;51.796;5.808;2023-02-22T00:17:20;59.95;;;27.10;;
25263;SDS011;13211;51.796;5.808;2023-02-22T00:19:47;59.28;;;28.05;;
25263;SDS011;13211;51.796;5.808;2023-02-22T00:22:15;58.78;;;27.92;;
25263;SDS011;13211;51.796;5.808;2023-02-22T00:24:45;66.13;;;28.95;;
25263;SDS011;13211;51.796;5.808;2023-02-22T00:27:13;54.17;;;26.38;;
25263;SDS011;13211;51.796;5.808;2023-02-22T00:29:44;61.72;;;27.25;;
25263;SDS011;13211;51.796;5.808;2023-02-22T00:32:12;62.35;;;28.90;;
25263;SDS011;13211;51.796;5.808;2023-02-22T00:34:41;58.90;;;27.23;;
25263;SDS011;13211;51.796;5.808;2023-02-22T00:37:10;66.10;;;29.17;;
25263;SDS011;13211;51.796;5.808;2023-02-22T00:39:38;64.10;;;28.63;;
25263;SDS011;13211;51.796;5.808;2023-02-22T00:42:05;62.60;;;27.98;;
25263;SDS011;13211;51.796;5.808;2023-02-22T00:44:33;61.88;;;27.05;;
25263;SDS011;13211;51.796;5.808;2023-02-22T00:47:02;64.78;;;28.02;;
25263;SDS011;13211;51.796;5.808;2023-02-22T00:49:30;63.80;;;27.90;;
25263;SDS011;13211;51.796;5.808;2023-02-22T00:51:58;67.65;;;28.58;;
25263;SDS011;13211;51.796;5.808;2023-02-22T00:54:25;63.60;;;27.42;;
25263;SDS011;13211;51.796;5.808;2023-02-22T00:56:53;70.45;;;29.40;;
25263;SDS011;13211;51.796;5.808;2023-02-22T00:59:22;66.97;;;27.85;;
25263;SDS011;13211;51.796;5.808;2023-02-22T01:03:33;67.25;;;28.73;;
25263;SDS011;13211;51.796;5.808;2023-02-22T01:06:02;69.53;;;28.15;;
25263;SDS011;13211;51.796;5.808;2023-02-22T01:08:30;66.50;;;28.23;;
25263;SDS011;13211;51.796;5.808;2023-02-22T01:10:58;71.50;;;28.02;;
25263;SDS011;13211;51.796;5.808;2023-02-22T01:13:25;67.78;;;27.05;;
25263;SDS011;13211;51.796;5.808;2023-02-22T01:15:52;68.63;;;28.60;;
25263;SDS011;13211;51.796;5.808;2023-02-22T01:18:22;69.78;;;28.27;;
25263;SDS011;13211;51.796;5.808;2023-02-22T01:20:49;73.05;;;29.10;;
25263;SDS011;13211;51.796;5.808;2023-02-22T01:23:18;69.72;;;27.83;;
25263;SDS011;13211;51.796;5.808;2023-02-22T01:25:49;68.18;;;27.25;;
25263;SDS011;13211;51.796;5.808;2023-02-22T01:28:17;72.35;;;28.05;;
25263;SDS011;13211;51.796;5.808;2023-02-22T01:30:45;69.13;;;28.35;;
25263;SDS011;13211;51.796;5.808;2023-02-22T01:33:13;68.88;;;26.92;;
25263;SDS011;13211;51.796;5.808;2023-02-22T01:35:43;75.90;;;27.05;;
25263;SDS011;13211;51.796;5.808;2023-02-22T01:38:12;69.72;;;27.52;;
25263;SDS011;13211;51.796;5.808;2023-02-22T01:40:42;65.32;;;27.48;;
25263;SDS011;13211;51.796;5.808;2023-02-22T01:43:21;78.10;;;29.02;;
25263;SDS011;13211;51.796;5.808;2023-02-22T01:45:55;73.40;;;26.83;;
25263;SDS011;13211;51.796;5.808;2023-02-22T01:51:17;70.72;;;26.55;;
25263;SDS011;13211;51.796;5.808;2023-02-22T01:56:22;73.40;;;27.42;;
25263;SDS011;13211;51.796;5.808;2023-02-22T01:59:02;77.65;;;28.80;;
25263;SDS011;13211;51.796;5.808;2023-02-22T02:01:34;73.78;;;28.23;;
25263;SDS011;13211;51.796;5.808;2023-02-22T02:04:09;73.35;;;27.15;;
25263;SDS011;13211;51.796;5.808;2023-02-22T02:06:46;77.25;;;27.95;;
25263;SDS011;13211;51.796;5.808;2023-02-22T02:09:19;75.82;;;28.33;;
25263;SDS011;13211;51.796;5.808;2023-02-22T02:12:07;71.68;;;26.50;;
25263;SDS011;13211;51.796;5.808;2023-02-22T02:14:39;75.63;;;28.88;;
25263;SDS011;13211;51.796;5.808;2023-02-22T02:17:13;74.47;;;28.25;;
25263;SDS011;13211;51.796;5.808;2023-02-22T02:20:08;81.97;;;27.85;;
25263;SDS011;13211;51.796;5.808;2023-02-22T02:39:55;76.47;;;29.38;;
25263;SDS011;13211;51.796;5.808;2023-02-22T02:42:32;80.82;;;29.70;;
25263;SDS011;13211;51.796;5.808;2023-02-22T02:45:48;73.95;;;29.00;;
25263;SDS011;13211;51.796;5.808;2023-02-22T02:48:11;69.32;;;28.20;;
25263;SDS011;13211;51.796;5.808;2023-02-22T02:50:43;73.00;;;28.05;;
25263;SDS011;13211;51.796;5.808;2023-02-22T02:53:14;76.45;;;27.35;;
25263;SDS011;13211;51.796;5.808;2023-02-22T02:55:48;74.65;;;29.42;;
25263;SDS011;13211;51.796;5.808;2023-02-22T02:58:18;72.68;;;28.65;;
25263;SDS011;13211;51.796;5.808;2023-02-22T03:03:22;73.70;;;27.67;;
25263;SDS011;13211;51.796;5.808;2023-02-22T03:08:40;77.13;;;30.52;;
25263;SDS011;13211;51.796;5.808;2023-02-22T03:11:15;74.60;;;29.65;;
25263;SDS011;13211;51.796;5.808;2023-02-22T03:17:03;83.45;;;30.10;;
25263;SDS011;13211;51.796;5.808;2023-02-22T03:19:52;83.18;;;31.27;;
25263;SDS011;13211;51.796;5.808;2023-02-22T03:22:25;87.55;;;31.33;;
25263;SDS011;13211;51.796;5.808;2023-02-22T03:25:10;84.72;;;31.00;;
25263;SDS011;13211;51.796;5.808;2023-02-22T03:27:47;87.85;;;31.35;;
25263;SDS011;13211;51.796;5.808;2023-02-22T03:30:26;96.63;;;32.30;;
25263;SDS011;13211;51.796;5.808;2023-02-22T03:33:04;87.13;;;32.35;;
25263;SDS011;13211;51.796;5.808;2023-02-22T03:35:39;87.38;;;32.13;;
25263;SDS011;13211;51.796;5.808;2023-02-22T03:38:15;90.82;;;31.77;;
25263;SDS011;13211;51.796;5.808;2023-02-22T03:40:48;98.28;;;33.65;;
25263;SDS011;13211;51.796;5.808;2023-02-22T03:43:23;97.32;;;33.85;;
25263;SDS011;13211;51.796;5.808;2023-02-22T03:45:58;107.18;;;35.60;;
25263;SDS011;13211;51.796;5.808;2023-02-22T03:48:38;98.72;;;34.22;;
25263;SDS011;13211;51.796;5.808;2023-02-22T03:51:30;101.23;;;34.50;;
25263;SDS011;13211;51.796;5.808;2023-02-22T03:54:00;94.85;;;34.45;;
25263;SDS011;13211;51.796;5.808;2023-02-22T03:56:35;103.15;;;35.15;;
25263;SDS011;13211;51.796;5.808;2023-02-22T03:59:13;102.22;;;35.42;;
25263;SDS011;13211;51.796;5.808;2023-02-22T04:01:42;108.00;;;36.03;;
25263;SDS011;13211;51.796;5.808;2023-02-22T04:04:11;110.45;;;34.40;;
25263;SDS011;13211;51.796;5.808;2023-02-22T04:06:39;100.40;;;35.00;;
25263;SDS011;13211;51.796;5.808;2023-02-22T04:09:14;109.47;;;35.47;;
25263;SDS011;13211;51.796;5.808;2023-02-22T04:11:43;102.30;;;35.05;;
25263;SDS011;13211;51.796;5.808;2023-02-22T04:14:13;115.25;;;35.35;;
25263;SDS011;13211;51.796;5.808;2023-02-22T04:16:41;104.63;;;34.35;;
25263;SDS011;13211;51.796;5.808;2023-02-22T04:19:09;111.13;;;36.28;;
25263;SDS011;13211;51.796;5.808;2023-02-22T04:21:38;110.10;;;35.95;;
25263;SDS011;13211;51.796;5.808;2023-02-22T04:24:12;110.35;;;37.22;;
25263;SDS011;13211;51.796;5.808;2023-02-22T04:26:41;107.60;;;37.00;;
25263;SDS011;13211;51.796;5.808;2023-02-22T04:29:11;106.65;;;35.83;;
25263;SDS011;13211;51.796;5.808;2023-02-22T04:31:40;108.38;;;34.50;;
25263;SDS011;13211;51.796;5.808;2023-02-22T04:34:11;119.80;;;37.33;;
25263;SDS011;13211;51.796;5.808;2023-02-22T04:36:40;100.60;;;34.33;;
25263;SDS011;13211;51.796;5.808;2023-02-22T04:39:15;114.90;;;36.55;;
25263;SDS011;13211;51.796;5.808;2023-02-22T04:41:43;101.50;;;35.10;;
25263;SDS011;13211;51.796;5.808;2023-02-22T04:44:17;113.47;;;36.63;;
25263;SDS011;13211;51.796;5.808;2023-02-22T04:46:45;117.28;;;37.38;;
25263;SDS011;13211;51.796;5.808;2023-02-22T04:49:15;125.63;;;37.28;;
25263;SDS011;13211;51.796;5.808;2023-02-22T04:51:45;132.63;;;38.85;;
25263;SDS011;13211;51.796;5.808;2023-02-22T04:54:13;127.03;;;38.25;;
25263;SDS011;13211;51.796;5.808;2023-02-22T04:56:45;158.15;;;39.50;;
25263;SDS011;13211;51.796;5.808;2023-02-22T04:59:13;115.90;;;37.92;;
25263;SDS011;13211;51.796;5.808;2023-02-22T05:01:43;120.13;;;38.35;;
25263;SDS011;13211;51.796;5.808;2023-02-22T05:04:12;133.82;;;39.35;;
25263;SDS011;13211;51.796;5.808;2023-02-22T05:06:41;123.40;;;38.35;;
25263;SDS011;13211;51.796;5.808;2023-02-22T05:09:08;112.57;;;37.10;;
25263;SDS011;13211;51.796;5.808;2023-02-22T05:11:35;151.40;;;37.75;;
25263;SDS011;13211;51.796;5.808;2023-02-22T05:14:03;106.95;;;36.65;;
25263;SDS011;13211;51.796;5.808;2023-02-22T05:16:30;104.40;;;36.28;;
25263;SDS011;13211;51.796;5.808;2023-02-22T05:18:58;114.38;;;36.45;;
25263;SDS011;13211;51.796;5.808;2023-02-22T05:21:25;106.18;;;36.08;;
25263;SDS011;13211;51.796;5.808;2023-02-22T05:23:52;115.60;;;38.25;;
25263;SDS011;13211;51.796;5.808;2023-02-22T05:26:20;111.25;;;37.05;;
25263;SDS011;13211;51.796;5.808;2023-02-22T05:28:47;108.90;;;37.40;;
25263;SDS011;13211;51.796;5.808;2023-02-22T05:31:17;100.05;;;36.50;;
25263;SDS011;13211;51.796;5.808;2023-02-22T05:33:45;96.32;;;33.53;;
25263;SDS011;13211;51.796;5.808;2023-02-22T05:36:14;101.55;;;33.95;;
25263;SDS011;13211;51.796;5.808;2023-02-22T05:38:42;114.65;;;35.10;;
25263;SDS011;13211;51.796;5.808;2023-02-22T05:41:10;104.45;;;35.63;;
25263;SDS011;13211;51.796;5.808;2023-02-22T05:43:39;100.90;;;34.88;;
25263;SDS011;13211;51.796;5.808;2023-02-22T05:46:07;87.63;;;32.85;;
25263;SDS011;13211;51.796;5.808;2023-02-22T05:48:34;103.65;;;32.97;;
25263;SDS011;13211;51.796;5.808;2023-02-22T05:51:02;104.72;;;33.38;;
25263;SDS011;13211;51.796;5.808;2023-02-22T05:53:30;96.05;;;34.05;;
25263;SDS011;13211;51.796;5.808;2023-02-22T05:55:57;97.07;;;33.30;;
25263;SDS011;13211;51.796;5.808;2023-02-22T05:58:25;94.10;;;32.72;;
25263;SDS011;13211;51.796;5.808;2023-02-22T06:00:52;97.25;;;34.13;;
25263;SDS011;13211;51.796;5.808;2023-02-22T06:03:20;103.50;;;34.45;;
25263;SDS011;13211;51.796;5.808;2023-02-22T06:05:47;99.13;;;33.05;;
25263;SDS011;13211;51.796;5.808;2023-02-22T06:08:15;103.10;;;35.63;;
25263;SDS011;13211;51.796;5.808;2023-02-22T06:10:48;98.22;;;31.75;;
25263;SDS011;13211;51.796;5.808;2023-02-22T06:13:16;102.13;;;33.42;;
25263;SDS011;13211;51.796;5.808;2023-02-22T06:15:45;96.55;;;34.50;;
25263;SDS011;13211;51.796;5.808;2023-02-22T06:18:16;95.35;;;32.40;;
25263;SDS011;13211;51.796;5.808;2023-02-22T06:20:43;96.22;;;33.53;;
25263;SDS011;13211;51.796;5.808;2023-02-22T06:23:12;99.45;;;32.88;;
25263;SDS011;13211;51.796;5.808;2023-02-22T06:25:40;97.03;;;31.92;;
25263;SDS011;13211;51.796;5.808;2023-02-22T06:28:10;94.38;;;32.95;;
25263;SDS011;13211;51.796;5.808;2023-02-22T06:30:37;109.70;;;35.22;;
25263;SDS011;13211;51.796;5.808;2023-02-22T06:33:07;111.03;;;34.45;;
25263;SDS011;13211;51.796;5.808;2023-02-22T06:35:35;97.82;;;31.65;;
25263;SDS011;13211;51.796;5.808;2023-02-22T06:38:02;99.75;;;33.35;;
25263;SDS011;13211;51.796;5.808;2023-02-22T06:40:30;96.53;;;31.40;;
25263;SDS011;13211;51.796;5.808;2023-02-22T06:42:58;100.63;;;33.70;;
25263;SDS011;13211;51.796;5.808;2023-02-22T06:45:25;105.40;;;33.17;;
25263;SDS011;13211;51.796;5.808;2023-02-22T06:47:53;103.32;;;33.10;;
25263;SDS011;13211;51.796;5.808;2023-02-22T06:50:23;98.55;;;33.13;;
25263;SDS011;13211;51.796;5.808;2023-02-22T06:52:55;95.78;;;34.15;;
25263;SDS011;13211;51.796;5.808;2023-02-22T06:55:24;100.30;;;33.45;;
25263;SDS011;13211;51.796;5.808;2023-02-22T06:57:56;127.70;;;35.35;;
25263;SDS011;13211;51.796;5.808;2023-02-22T07:00:24;101.40;;;33.97;;
25263;SDS011;13211;51.796;5.808;2023-02-22T07:02:54;105.85;;;35.47;;
25263;SDS011;13211;51.796;5.808;2023-02-22T07:05:22;103.43;;;34.92;;
25263;SDS011;13211;51.796;5.808;2023-02-22T07:07:51;96.13;;;31.50;;
25263;SDS011;13211;51.796;5.808;2023-02-22T07:10:23;101.75;;;33.75;;
25263;SDS011;13211;51.796;5.808;2023-02-22T07:12:55;106.35;;;34.22;;
25263;SDS011;13211;51.796;5.808;2023-02-22T07:15:24;99.93;;;32.03;;
25263;SDS011;13211;51.796;5.808;2023-02-22T07:17:54;99.80;;;33.00;;
25263;SDS011;13211;51.796;5.808;2023-02-22T07:20:22;110.63;;;34.25;;
25263;SDS011;13211;51.796;5.808;2023-02-22T07:22:51;101.60;;;32.75;;
25263;SDS011;13211;51.796;5.808;2023-02-22T07:25:19;99.43;;;32.58;;
25263;SDS011;13211;51.796;5.808;2023-02-22T07:27:49;99.90;;;31.58;;
25263;SDS011;13211;51.796;5.808;2023-02-22T07:30:22;112.47;;;34.08;;
25263;SDS011;13211;51.796;5.808;2023-02-22T07:32:57;109.00;;;33.97;;
25263;SDS011;13211;51.796;5.808;2023-02-22T07:35:27;115.15;;;34.15;;
25263;SDS011;13211;51.796;5.808;2023-02-22T07:37:56;102.85;;;31.50;;
25263;SDS011;13211;51.796;5.808;2023-02-22T07:40:25;110.75;;;32.95;;
25263;SDS011;13211;51.796;5.808;2023-02-22T07:42:58;112.03;;;32.92;;
25263;SDS011;13211;51.796;5.808;2023-02-22T07:45:28;102.97;;;32.40;;
25263;SDS011;13211;51.796;5.808;2023-02-22T07:47:57;107.97;;;32.95;;
25263;SDS011;13211;51.796;5.808;2023-02-22T07:50:26;112.57;;;33.13;;
25263;SDS011;13211;51.796;5.808;2023-02-22T07:52:56;116.05;;;33.55;;
25263;SDS011;13211;51.796;5.808;2023-02-22T07:55:26;108.25;;;32.75;;
25263;SDS011;13211;51.796;5.808;2023-02-22T07:57:57;127.43;;;35.40;;
25263;SDS011;13211;51.796;5.808;2023-02-22T08:00:32;115.60;;;34.47;;
25263;SDS011;13211;51.796;5.808;2023-02-22T08:03:07;117.90;;;34.78;;
25263;SDS011;13211;51.796;5.808;2023-02-22T08:05:35;125.40;;;35.97;;
25263;SDS011;13211;51.796;5.808;2023-02-22T08:08:05;126.55;;;33.40;;
25263;SDS011;13211;51.796;5.808;2023-02-22T08:10:33;118.90;;;33.78;;
25263;SDS011;13211;51.796;5.808;2023-02-22T08:13:01;119.07;;;33.10;;
25263;SDS011;13211;51.796;5.808;2023-02-22T08:15:31;123.65;;;35.08;;
25263;SDS011;13211;51.796;5.808;2023-02-22T08:18:01;116.75;;;31.98;;
25263;SDS011;13211;51.796;5.808;2023-02-22T08:20:30;115.93;;;32.55;;
25263;SDS011;13211;51.796;5.808;2023-02-22T08:23:01;110.65;;;31.73;;
25263;SDS011;13211;51.796;5.808;2023-02-22T08:25:30;111.05;;;32.00;;
25263;SDS011;13211;51.796;5.808;2023-02-22T08:27:59;109.30;;;33.00;;
25263;SDS011;13211;51.796;5.808;2023-02-22T08:30:33;124.85;;;34.05;;
25263;SDS011;13211;51.796;5.808;2023-02-22T08:33:07;124.93;;;35.25;;
25263;SDS011;13211;51.796;5.808;2023-02-22T08:35:35;101.75;;;32.00;;
25263;SDS011;13211;51.796;5.808;2023-02-22T08:38:03;104.50;;;30.38;;
25263;SDS011;13211;51.796;5.808;2023-02-22T08:40:34;114.15;;;33.13;;
25263;SDS011;13211;51.796;5.808;2023-02-22T08:43:03;111.57;;;32.65;;
25263;SDS011;13211;51.796;5.808;2023-02-22T08:45:30;104.15;;;32.28;;
25263;SDS011;13211;51.796;5.808;2023-02-22T08:47:58;102.68;;;31.17;;
25263;SDS011;13211;51.796;5.808;2023-02-22T08:50:27;106.18;;;32.25;;
25263;SDS011;13211;51.796;5.808;2023-02-22T08:52:57;102.55;;;30.63;;
25263;SDS011;13211;51.796;5.808;2023-02-22T08:55:27;103.10;;;31.90;;
25263;SDS011;13211;51.796;5.808;2023-02-22T08:57:58;100.85;;;30.73;;
25263;SDS011;13211;51.796;5.808;2023-02-22T09:00:29;96.97;;;32.15;;
25263;SDS011;13211;51.796;5.808;2023-02-22T09:03:00;94.30;;;30.23;;
25263;SDS011;13211;51.796;5.808;2023-02-22T09:05:33;99.10;;;30.80;;
25263;SDS011;13211;51.796;5.808;2023-02-22T09:10:31;94.70;;;30.05;;
25263;SDS011;13211;51.796;5.808;2023-02-22T09:12:59;96.35;;;31.25;;
25263;SDS011;13211;51.796;5.808;2023-02-22T09:15:28;92.57;;;29.75;;
25263;SDS011;13211;51.796;5.808;2023-02-22T09:17:56;85.75;;;30.63;;
25263;SDS011;13211;51.796;5.808;2023-02-22T09:20:25;78.25;;;28.20;;
25263;SDS011;13211;51.796;5.808;2023-02-22T09:22:53;86.28;;;31.20;;
25263;SDS011;13211;51.796;5.808;2023-02-22T09:25:21;86.30;;;28.73;;
25263;SDS011;13211;51.796;5.808;2023-02-22T09:27:50;86.10;;;29.25;;
25263;SDS011;13211;51.796;5.808;2023-02-22T09:30:24;81.03;;;29.73;;
25263;SDS011;13211;51.796;5.808;2023-02-22T09:33:00;75.65;;;27.73;;
25263;SDS011;13211;51.796;5.808;2023-02-22T09:35:31;77.07;;;28.45;;
25263;SDS011;13211;51.796;5.808;2023-02-22T09:38:08;76.45;;;28.05;;
25263;SDS011;13211;51.796;5.808;2023-02-22T09:40:41;77.13;;;27.98;;
25263;SDS011;13211;51.796;5.808;2023-02-22T09:48:55;68.95;;;27.35;;
25263;SDS011;13211;51.796;5.808;2023-02-22T09:51:54;74.13;;;27.77;;
25263;SDS011;13211;51.796;5.808;2023-02-22T09:56:55;66.60;;;26.25;;
25263;SDS011;13211;51.796;5.808;2023-02-22T09:59:29;68.00;;;27.05;;
25263;SDS011;13211;51.796;5.808;2023-02-22T10:02:12;70.38;;;27.48;;
25263;SDS011;13211;51.796;5.808;2023-02-22T10:05:07;70.32;;;28.35;;
25263;SDS011;13211;51.796;5.808;2023-02-22T10:07:45;73.43;;;27.77;;
25263;SDS011;13211;51.796;5.808;2023-02-22T10:10:21;75.30;;;29.27;;
25263;SDS011;13211;51.796;5.808;2023-02-22T10:19:05;62.72;;;26.38;;
25263;SDS011;13211;51.796;5.808;2023-02-22T10:32:56;58.80;;;26.25;;
25263;SDS011;13211;51.796;5.808;2023-02-22T10:35:49;61.28;;;26.40;;
25263;SDS011;13211;51.796;5.808;2023-02-22T10:41:02;61.78;;;25.77;;
25263;SDS011;13211;51.796;5.808;2023-02-22T10:43:46;57.75;;;24.70;;
25263;SDS011;13211;51.796;5.808;2023-02-22T10:46:17;61.08;;;26.05;;
25263;SDS011;13211;51.796;5.808;2023-02-22T10:48:49;54.67;;;23.30;;
25263;SDS011;13211;51.796;5.808;2023-02-22T10:51:21;53.08;;;24.13;;
25263;SDS011;13211;51.796;5.808;2023-02-22T10:53:55;52.10;;;24.55;;
25263;SDS011;13211;51.796;5.808;2023-02-22T10:56:51;51.58;;;24.13;;
25263;SDS011;13211;51.796;5.808;2023-02-22T11:05:08;50.00;;;23.70;;
25263;SDS011;13211;51.796;5.808;2023-02-22T11:10:48;52.10;;;24.98;;
25263;SDS011;13211;51.796;5.808;2023-02-22T11:16:17;50.72;;;23.25;;
25263;SDS011;13211;51.796;5.808;2023-02-22T11:18:46;52.13;;;23.38;;
25263;SDS011;13211;51.796;5.808;2023-02-22T11:21:20;47.67;;;22.55;;
25263;SDS011;13211;51.796;5.808;2023-02-22T11:23:48;49.05;;;22.98;;
25263;SDS011;13211;51.796;5.808;2023-02-22T11:26:27;51.40;;;23.33;;
25263;SDS011;13211;51.796;5.808;2023-02-22T11:29:03;49.58;;;23.70;;
25263;SDS011;13211;51.796;5.808;2023-02-22T11:31:40;50.03;;;21.77;;
25263;SDS011;13211;51.796;5.808;2023-02-22T11:37:16;47.30;;;22.88;;
25263;SDS011;13211;51.796;5.808;2023-02-22T11:42:45;44.28;;;22.70;;
25263;SDS011;13211;51.796;5.808;2023-02-22T11:45:17;42.85;;;22.48;;
25263;SDS011;13211;51.796;5.808;2023-02-22T11:47:59;51.05;;;23.73;;
25263;SDS011;13211;51.796;5.808;2023-02-22T11:56:12;46.47;;;22.13;;
25263;SDS011;13211;51.796;5.808;2023-02-22T12:08:16;44.80;;;22.92;;
25263;SDS011;13211;51.796;5.808;2023-02-22T12:22:01;42.03;;;21.77;;
25263;SDS011;13211;51.796;5.808;2023-02-22T12:25:04;42.60;;;20.67;;
25263;SDS011;13211;51.796;5.808;2023-02-22T12:27:53;41.50;;;19.42;;
25263;SDS011;13211;51.796;5.808;2023-02-22T12:30:26;37.22;;;20.85;;
25263;SDS011;13211;51.796;5.808;2023-02-22T12:36:12;41.10;;;20.92;;
25263;SDS011;13211;51.796;5.808;2023-02-22T12:38:47;38.20;;;19.90;;
25263;SDS011;13211;51.796;5.808;2023-02-22T12:41:43;30.27;;;17.38;;
25263;SDS011;13211;51.796;5.808;2023-02-22T12:44:15;31.33;;;17.80;;
25263;SDS011;13211;51.796;5.808;2023-02-22T12:46:51;37.90;;;17.75;;
25263;SDS011;13211;51.796;5.808;2023-02-22T12:58:06;26.15;;;15.55;;
25263;SDS011;13211;51.796;5.808;2023-02-22T13:03:25;27.98;;;15.43;;
25263;SDS011;13211;51.796;5.808;2023-02-22T13:06:04;30.98;;;16.35;;
25263;SDS011;13211;51.796;5.808;2023-02-22T13:09:00;26.77;;;16.23;;
25263;SDS011;13211;51.796;5.808;2023-02-22T13:11:47;28.23;;;16.40;;
25263;SDS011;13211;51.796;5.808;2023-02-22T13:14:32;28.92;;;16.83;;
25263;SDS011;13211;51.796;5.808;2023-02-22T13:20:02;30.17;;;17.45;;
25263;SDS011;13211;51.796;5.808;2023-02-22T13:22:59;47.35;;;19.10;;
25263;SDS011;13211;51.796;5.808;2023-02-22T13:31:26;30.58;;;17.38;;
25263;SDS011;13211;51.796;5.808;2023-02-22T13:34:15;33.97;;;19.40;;
25263;SDS011;13211;51.796;5.808;2023-02-22T13:39:47;33.80;;;17.98;;
25263;SDS011;13211;51.796;5.808;2023-02-22T13:53:43;33.55;;;19.23;;
25263;SDS011;13211;51.796;5.808;2023-02-22T13:56:15;36.65;;;20.95;;
25263;SDS011;13211;51.796;5.808;2023-02-22T13:59:02;37.95;;;19.80;;
25263;SDS011;13211;51.796;5.808;2023-02-22T14:04:21;40.90;;;21.58;;
25263;SDS011;13211;51.796;5.808;2023-02-22T14:06:55;41.80;;;19.98;;
25263;SDS011;13211;51.796;5.808;2023-02-22T14:15:15;34.35;;;20.25;;
25263;SDS011;13211;51.796;5.808;2023-02-22T14:20:25;44.97;;;21.92;;
25263;SDS011;13211;51.796;5.808;2023-02-22T14:34:16;37.00;;;20.65;;
25263;SDS011;13211;51.796;5.808;2023-02-22T14:39:26;35.95;;;20.08;;
25263;SDS011;13211;51.796;5.808;2023-02-22T14:50:44;34.50;;;19.95;;
25263;SDS011;13211;51.796;5.808;2023-02-22T14:53:21;35.72;;;19.52;;
25263;SDS011;13211;51.796;5.808;2023-02-22T14:56:00;36.75;;;21.67;;
25263;SDS011;13211;51.796;5.808;2023-02-22T14:58:37;39.17;;;20.63;;
25263;SDS011;13211;51.796;5.808;2023-02-22T15:01:21;36.80;;;19.95;;
25263;SDS011;13211;51.796;5.808;2023-02-22T15:04:20;38.33;;;20.10;;
25263;SDS011;13211;51.796;5.808;2023-02-22T15:06:56;34.90;;;19.92;;
25263;SDS011;13211;51.796;5.808;2023-02-22T15:14:32;38.33;;;19.63;;
25263;SDS011;13211;51.796;5.808;2023-02-22T15:17:07;36.40;;;19.13;;
25263;SDS011;13211;51.796;5.808;2023-02-22T15:19:43;34.03;;;19.48;;
25263;SDS011;13211;51.796;5.808;2023-02-22T15:22:30;38.38;;;19.65;;
25263;SDS011;13211;51.796;5.808;2023-02-22T15:25:05;35.95;;;19.40;;
25263;SDS011;13211;51.796;5.808;2023-02-22T15:27:34;32.40;;;18.75;;
25263;SDS011;13211;51.796;5.808;2023-02-22T15:30:06;37.10;;;19.45;;
25263;SDS011;13211;51.796;5.808;2023-02-22T15:32:52;32.95;;;19.23;;
25263;SDS011;13211;51.796;5.808;2023-02-22T15:35:31;34.65;;;18.52;;
25263;SDS011;13211;51.796;5.808;2023-02-22T15:38:02;31.23;;;18.73;;
25263;SDS011;13211;51.796;5.808;2023-02-22T15:40:33;38.80;;;20.38;;
25263;SDS011;13211;51.796;5.808;2023-02-22T15:43:03;31.55;;;18.50;;
25263;SDS011;13211;51.796;5.808;2023-02-22T15:45:35;39.70;;;19.95;;
25263;SDS011;13211;51.796;5.808;2023-02-22T15:48:11;33.67;;;20.08;;
25263;SDS011;13211;51.796;5.808;2023-02-22T15:53:44;36.35;;;20.42;;
25263;SDS011;13211;51.796;5.808;2023-02-22T15:56:14;35.83;;;19.85;;
25263;SDS011;13211;51.796;5.808;2023-02-22T15:58:50;38.88;;;20.90;;
25263;SDS011;13211;51.796;5.808;2023-02-22T16:01:24;34.00;;;19.52;;
25263;SDS011;13211;51.796;5.808;2023-02-22T16:03:56;40.22;;;21.10;;
25263;SDS011;13211;51.796;5.808;2023-02-22T16:11:25;37.25;;;22.23;;
25263;SDS011;13211;51.796;5.808;2023-02-22T16:14:01;41.67;;;22.27;;
25263;SDS011;13211;51.796;5.808;2023-02-22T16:16:33;38.60;;;21.23;;
25263;SDS011;13211;51.796;5.808;2023-02-22T16:19:41;38.63;;;22.13;;
25263;SDS011;13211;51.796;5.808;2023-02-22T16:22:22;40.92;;;21.67;;
25263;SDS011;13211;51.796;5.808;2023-02-22T16:32:51;37.08;;;20.55;;
25263;SDS011;13211;51.796;5.808;2023-02-22T16:35:20;41.25;;;23.48;;
25263;SDS011;13211;51.796;5.808;2023-02-22T16:37:58;39.08;;;22.33;;
25263;SDS011;13211;51.796;5.808;2023-02-22T16:40:41;35.33;;;21.70;;
25263;SDS011;13211;51.796;5.808;2023-02-22T16:43:16;39.40;;;22.77;;
25263;SDS011;13211;51.796;5.808;2023-02-22T16:45:47;38.40;;;22.20;;
25263;SDS011;13211;51.796;5.808;2023-02-22T16:48:18;41.70;;;22.90;;
25263;SDS011;13211;51.796;5.808;2023-02-22T16:50:47;40.90;;;22.63;;
25263;SDS011;13211;51.796;5.808;2023-02-22T16:53:17;37.70;;;23.83;;
25263;SDS011;13211;51.796;5.808;2023-02-22T16:55:47;38.47;;;22.27;;
25263;SDS011;13211;51.796;5.808;2023-02-22T16:58:16;45.05;;;24.63;;
25263;SDS011;13211;51.796;5.808;2023-02-22T17:00:45;40.92;;;23.23;;
25263;SDS011;13211;51.796;5.808;2023-02-22T17:03:14;42.53;;;24.80;;
25263;SDS011;13211;51.796;5.808;2023-02-22T17:05:46;43.67;;;24.50;;
25263;SDS011;13211;51.796;5.808;2023-02-22T17:08:13;41.58;;;23.75;;
25263;SDS011;13211;51.796;5.808;2023-02-22T17:10:45;46.35;;;24.50;;
25263;SDS011;13211;51.796;5.808;2023-02-22T17:13:13;38.78;;;24.05;;
25263;SDS011;13211;51.796;5.808;2023-02-22T17:15:50;38.83;;;24.50;;
25263;SDS011;13211;51.796;5.808;2023-02-22T17:18:21;41.05;;;24.70;;
25263;SDS011;13211;51.796;5.808;2023-02-22T17:20:54;43.42;;;26.02;;
25263;SDS011;13211;51.796;5.808;2023-02-22T17:23:22;49.05;;;26.00;;
25263;SDS011;13211;51.796;5.808;2023-02-22T17:25:51;49.60;;;28.60;;
25263;SDS011;13211;51.796;5.808;2023-02-22T17:28:20;48.07;;;29.40;;
25263;SDS011;13211;51.796;5.808;2023-02-22T17:30:50;60.10;;;30.23;;
25263;SDS011;13211;51.796;5.808;2023-02-22T17:33:21;54.38;;;30.40;;
25263;SDS011;13211;51.796;5.808;2023-02-22T17:35:56;57.50;;;31.02;;
25263;SDS011;13211;51.796;5.808;2023-02-22T17:38:25;57.08;;;31.55;;
25263;SDS011;13211;51.796;5.808;2023-02-22T17:40:55;59.50;;;31.88;;
25263;SDS011;13211;51.796;5.808;2023-02-22T17:43:27;57.22;;;30.63;;
25263;SDS011;13211;51.796;5.808;2023-02-22T17:45:58;61.88;;;31.95;;
25263;SDS011;13211;51.796;5.808;2023-02-22T17:48:28;57.38;;;31.90;;
25263;SDS011;13211;51.796;5.808;2023-02-22T17:50:56;57.95;;;31.75;;
25263;SDS011;13211;51.796;5.808;2023-02-22T17:53:23;55.72;;;33.47;;
25263;SDS011;13211;51.796;5.808;2023-02-22T17:55:51;58.00;;;31.35;;
25263;SDS011;13211;51.796;5.808;2023-02-22T17:58:19;58.22;;;31.48;;
25263;SDS011;13211;51.796;5.808;2023-02-22T18:00:49;55.67;;;32.65;;
25263;SDS011;13211;51.796;5.808;2023-02-22T18:03:18;54.28;;;31.48;;
25263;SDS011;13211;51.796;5.808;2023-02-22T18:05:48;56.55;;;31.38;;
25263;SDS011;13211;51.796;5.808;2023-02-22T18:08:17;61.88;;;31.55;;
25263;SDS011;13211;51.796;5.808;2023-02-22T18:10:45;57.72;;;31.73;;
25263;SDS011;13211;51.796;5.808;2023-02-22T18:13:14;55.53;;;31.67;;